createdAt,value
2019-03-08T00:02:05.079Z,2.50
2019-03-08T00:04:35.668Z,2.50
2019-03-08T00:07:06.249Z,2.40
2019-03-08T00:09:36.644Z,2.80
2019-03-08T00:12:07.233Z,2.93
2019-03-08T00:14:37.710Z,2.77
2019-03-08T00:17:08.309Z,2.63
2019-03-08T00:19:39.490Z,3.30
2019-03-08T00:22:10.706Z,2.40
2019-03-08T00:24:41.272Z,2.70
2019-03-08T00:27:11.632Z,2.63
2019-03-08T00:29:42.109Z,2.90
2019-03-08T00:32:12.743Z,2.80
2019-03-08T00:34:43.240Z,2.80
2019-03-08T00:37:13.792Z,2.87
2019-03-08T00:39:44.193Z,2.63
2019-03-08T00:42:14.623Z,3.00
2019-03-08T00:44:45.110Z,3.07
2019-03-08T00:47:15.709Z,3.10
2019-03-08T00:49:46.159Z,3.27
2019-03-08T00:52:16.644Z,3.67
2019-03-08T00:54:47.353Z,4.00
2019-03-08T00:57:17.979Z,4.27
2019-03-08T00:59:48.403Z,3.80
2019-03-08T01:02:18.945Z,3.80
2019-03-08T01:04:49.972Z,4.10
2019-03-08T01:07:20.533Z,3.57
2019-03-08T01:09:51.179Z,3.70
2019-03-08T01:12:21.788Z,3.53
2019-03-08T01:14:52.391Z,4.40
2019-03-08T01:17:23.118Z,4.37
2019-03-08T01:19:53.704Z,4.30
2019-03-08T01:22:24.226Z,4.50
2019-03-08T01:24:55.173Z,4.40
2019-03-08T01:27:25.659Z,4.23
2019-03-08T01:29:56.463Z,4.07
2019-03-08T01:32:27.029Z,4.40
2019-03-08T01:34:57.833Z,3.87
2019-03-08T01:37:28.442Z,3.73
2019-03-08T01:39:59.063Z,3.70
2019-03-08T01:42:30.099Z,3.37
2019-03-08T01:45:00.683Z,3.03
2019-03-08T01:47:31.267Z,2.60
2019-03-08T01:50:01.956Z,2.30
2019-03-08T01:52:32.833Z,2.50
2019-03-08T01:55:03.832Z,2.37
2019-03-08T01:57:34.193Z,2.00
2019-03-08T02:00:05.521Z,2.00
2019-03-08T02:02:36.459Z,1.93
2019-03-08T02:05:07.637Z,2.00
2019-03-08T02:07:38.379Z,1.60
2019-03-08T02:10:10.579Z,2.37
2019-03-08T02:12:42.099Z,2.17
2019-03-08T02:15:14.700Z,1.80
2019-03-08T02:17:45.263Z,1.90
2019-03-08T02:20:20.374Z,1.70
2019-03-08T02:22:50.943Z,1.70
2019-03-08T02:25:21.839Z,2.23
2019-03-08T02:27:52.445Z,1.73
2019-03-08T02:30:23.066Z,1.97
2019-03-08T02:32:53.521Z,1.63
2019-03-08T02:35:24.063Z,1.70
2019-03-08T02:37:54.789Z,1.80
2019-03-08T02:40:36.736Z,2.10
2019-03-08T02:43:16.403Z,2.00
2019-03-08T02:45:47.102Z,2.07
2019-03-08T02:48:17.659Z,2.13
2019-03-08T02:50:48.062Z,2.30
2019-03-08T02:53:18.821Z,2.40
2019-03-08T02:55:51.293Z,2.60
2019-03-08T02:58:21.838Z,2.13
2019-03-08T03:00:52.415Z,1.73
2019-03-08T03:03:22.978Z,2.30
2019-03-08T03:05:54.443Z,1.90
2019-03-08T03:08:24.995Z,1.90
2019-03-08T03:10:55.503Z,2.13
2019-03-08T03:13:26.059Z,1.90
2019-03-08T03:15:56.623Z,2.47
2019-03-08T03:18:27.085Z,2.10
2019-03-08T03:20:57.610Z,2.00
2019-03-08T03:23:27.998Z,2.13
2019-03-08T03:25:58.394Z,2.40
2019-03-08T03:28:28.928Z,2.00
2019-03-08T03:30:59.674Z,2.20
2019-03-08T03:33:30.098Z,1.90
2019-03-08T03:36:00.593Z,2.43
2019-03-08T03:38:33.103Z,2.23
2019-03-08T03:41:03.706Z,2.37
2019-03-08T03:43:34.627Z,2.40
2019-03-08T03:46:05.183Z,2.73
2019-03-08T03:48:35.607Z,2.50
2019-03-08T03:51:06.146Z,2.30
2019-03-08T03:53:36.636Z,2.17
2019-03-08T03:56:07.577Z,2.20
2019-03-08T03:58:38.066Z,2.50
2019-03-08T04:01:27.593Z,2.40
2019-03-08T04:03:58.053Z,2.60
2019-03-08T04:06:28.642Z,2.13
2019-03-08T04:08:59.047Z,1.77
2019-03-08T04:11:29.600Z,2.50
2019-03-08T04:14:00.007Z,1.87
2019-03-08T04:16:30.569Z,2.50
2019-03-08T04:19:01.092Z,2.30
2019-03-08T04:21:31.567Z,2.20
2019-03-08T04:24:02.317Z,1.63
2019-03-08T04:26:33.018Z,2.17
2019-03-08T04:29:03.912Z,3.17
2019-03-08T04:31:34.899Z,2.13
2019-03-08T04:34:05.467Z,2.40
2019-03-08T04:36:36.053Z,2.70
2019-03-08T04:39:09.823Z,2.00
2019-03-08T04:41:40.307Z,2.30
2019-03-08T04:44:10.788Z,2.20
2019-03-08T04:46:41.179Z,2.27
2019-03-08T04:49:11.599Z,1.97
2019-03-08T04:51:42.162Z,1.97
2019-03-08T04:54:12.638Z,2.00
2019-03-08T04:56:43.363Z,1.73
2019-03-08T04:59:14.469Z,1.77
2019-03-08T05:01:45.265Z,1.80
2019-03-08T05:04:16.121Z,1.80
2019-03-08T05:06:47.032Z,2.37
2019-03-08T05:09:17.864Z,2.10
2019-03-08T05:11:49.255Z,2.27
2019-03-08T05:14:20.191Z,1.90
2019-03-08T05:16:50.870Z,2.00
2019-03-08T05:19:21.567Z,2.20
2019-03-08T05:21:52.468Z,1.90
2019-03-08T05:24:23.003Z,2.40
2019-03-08T05:26:53.735Z,2.27
2019-03-08T05:29:24.482Z,1.97
2019-03-08T05:31:55.031Z,2.00
2019-03-08T05:34:25.939Z,3.03
2019-03-08T05:36:56.537Z,6.37
2019-03-08T05:39:27.157Z,4.63
2019-03-08T05:41:57.858Z,4.67
2019-03-08T05:44:28.437Z,4.37
2019-03-08T05:46:59.174Z,4.07
2019-03-08T05:49:29.817Z,3.50
2019-03-08T05:52:00.434Z,3.63
2019-03-08T05:54:31.204Z,4.77
2019-03-08T05:57:01.812Z,3.47
2019-03-08T05:59:32.480Z,4.77
2019-03-08T06:02:03.210Z,3.50
2019-03-08T06:04:33.633Z,3.30
2019-03-08T06:07:04.406Z,4.90
2019-03-08T06:09:35.103Z,5.20
2019-03-08T06:12:05.850Z,4.33
2019-03-08T06:14:36.337Z,5.20
2019-03-08T06:17:06.927Z,3.77
2019-03-08T06:19:37.561Z,2.03
2019-03-08T06:22:07.988Z,2.00
2019-03-08T06:24:38.459Z,1.40
2019-03-08T06:27:09.445Z,2.10
2019-03-08T06:29:40.030Z,2.10
2019-03-08T06:32:10.617Z,2.40
2019-03-08T06:34:41.273Z,1.67
2019-03-08T06:37:11.722Z,2.10
2019-03-08T06:39:42.312Z,2.17
2019-03-08T06:42:12.826Z,1.47
2019-03-08T06:44:43.157Z,2.07
2019-03-08T06:47:13.591Z,2.00
2019-03-08T06:49:44.229Z,1.70
2019-03-08T06:52:14.793Z,1.80
2019-03-08T06:54:45.480Z,2.00
2019-03-08T06:57:16.058Z,1.60
2019-03-08T07:00:10.068Z,2.20
2019-03-08T07:02:40.673Z,1.60
2019-03-08T07:05:11.264Z,1.37
2019-03-08T07:07:41.936Z,1.97
2019-03-08T07:10:12.853Z,1.83
2019-03-08T07:12:43.368Z,1.90
2019-03-08T07:15:14.070Z,1.63
2019-03-08T07:17:44.894Z,1.70
2019-03-08T07:20:34.467Z,1.30
2019-03-08T07:23:27.831Z,1.43
2019-03-08T07:26:07.157Z,1.83
2019-03-08T07:28:57.456Z,1.03
2019-03-08T07:31:39.657Z,1.40
2019-03-08T07:34:16.168Z,1.53
2019-03-08T07:37:05.533Z,1.67
2019-03-08T07:39:55.258Z,1.30
2019-03-08T07:42:45.170Z,2.10
2019-03-08T07:45:30.835Z,1.17
2019-03-08T07:48:17.177Z,1.57
2019-03-08T07:51:06.900Z,1.43
2019-03-08T07:53:47.308Z,1.20
2019-03-08T07:56:36.618Z,1.10
2019-03-08T07:59:25.977Z,1.17
2019-03-08T08:02:02.791Z,1.10
2019-03-08T08:04:41.024Z,1.40
2019-03-08T08:07:30.606Z,1.30
2019-03-08T08:10:19.938Z,0.70
2019-03-08T08:13:09.493Z,0.80
2019-03-08T08:15:54.664Z,0.97
2019-03-08T08:18:38.543Z,0.90
2019-03-08T08:21:27.983Z,0.90
2019-03-08T08:24:05.883Z,0.90
2019-03-08T08:26:44.898Z,1.00
2019-03-08T08:29:35.188Z,0.90
2019-03-08T08:32:25.702Z,1.47
2019-03-08T08:35:09.453Z,0.77
2019-03-08T08:37:51.337Z,1.23
2019-03-08T08:40:41.229Z,1.03
2019-03-08T08:43:30.572Z,1.30
2019-03-08T08:46:09.181Z,0.90
2019-03-08T08:48:58.743Z,1.10
2019-03-08T08:51:48.168Z,1.30
2019-03-08T08:54:28.621Z,0.97
2019-03-08T08:57:08.147Z,1.50
2019-03-08T08:59:47.208Z,0.97
2019-03-08T09:02:31.077Z,1.10
2019-03-08T09:05:06.817Z,1.30
2019-03-08T09:07:45.529Z,1.07
2019-03-08T09:10:26.568Z,1.10
2019-03-08T09:13:02.357Z,1.10
2019-03-08T09:15:40.440Z,1.20
2019-03-08T09:18:17.833Z,1.07
2019-03-08T09:20:57.977Z,1.10
2019-03-08T09:23:34.597Z,0.90
2019-03-08T09:26:24.021Z,1.43
2019-03-08T09:29:04.606Z,1.10
2019-03-08T09:31:53.991Z,1.10
2019-03-08T09:34:43.327Z,1.20
2019-03-08T09:37:32.731Z,1.23
2019-03-08T09:40:22.147Z,1.10
2019-03-08T09:43:01.869Z,1.42
2019-03-08T09:45:41.459Z,1.12
2019-03-08T09:48:30.894Z,1.37
2019-03-08T09:51:11.723Z,1.35
2019-03-08T09:53:47.312Z,1.23
2019-03-08T09:56:23.544Z,1.20
2019-03-08T09:59:12.886Z,0.90
2019-03-08T10:01:53.118Z,1.33
2019-03-08T10:04:42.778Z,1.27
2019-03-08T10:07:32.252Z,1.10
2019-03-08T10:10:21.698Z,1.17
2019-03-08T10:13:11.124Z,1.07
2019-03-08T10:15:46.217Z,0.83
2019-03-08T10:18:35.973Z,0.90
2019-03-08T10:21:19.267Z,1.07
2019-03-08T10:24:08.950Z,1.27
2019-03-08T10:26:46.930Z,0.77
2019-03-08T10:29:27.044Z,1.60
2019-03-08T10:32:16.134Z,1.70
2019-03-08T10:35:06.133Z,1.00
2019-03-08T10:37:47.661Z,1.00
2019-03-08T10:40:25.527Z,1.57
2019-03-08T10:42:59.768Z,1.10
2019-03-08T10:45:48.256Z,1.30
2019-03-08T10:48:26.958Z,1.60
2019-03-08T10:51:16.494Z,1.37
2019-03-08T10:54:06.011Z,1.23
2019-03-08T10:56:55.419Z,1.37
2019-03-08T10:59:31.487Z,1.20
2019-03-08T11:02:21.157Z,1.07
2019-03-08T11:05:02.627Z,1.10
2019-03-08T11:07:51.792Z,1.00
2019-03-08T11:10:37.022Z,0.90
2019-03-08T11:13:24.879Z,1.53
2019-03-08T11:16:14.336Z,0.80
2019-03-08T11:19:08.814Z,0.80
2019-03-08T11:21:55.275Z,1.50
2019-03-08T11:24:45.170Z,0.70
2019-03-08T11:27:28.396Z,0.80
2019-03-08T11:30:11.003Z,0.90
2019-03-08T11:32:53.888Z,1.40
2019-03-08T11:35:43.552Z,1.10
2019-03-08T11:38:32.872Z,1.00
2019-03-08T11:41:10.018Z,0.90
2019-03-08T11:43:56.452Z,1.57
2019-03-08T11:46:36.521Z,0.90
2019-03-08T11:49:23.851Z,1.07
2019-03-08T11:52:13.298Z,1.20
2019-03-08T11:55:03.835Z,1.20
2019-03-08T11:57:53.994Z,1.00
2019-03-08T12:00:43.371Z,1.13
2019-03-08T12:03:32.777Z,1.07
2019-03-08T12:06:14.348Z,1.30
2019-03-08T12:09:03.747Z,1.20
2019-03-08T12:11:53.198Z,1.20
2019-03-08T12:14:42.631Z,1.10
2019-03-08T12:17:29.189Z,0.90
2019-03-08T12:20:08.881Z,0.90
2019-03-08T12:22:58.704Z,1.23
2019-03-08T12:25:48.336Z,0.70
2019-03-08T12:28:37.146Z,0.90
2019-03-08T12:31:16.413Z,1.30
2019-03-08T12:34:00.117Z,1.00
2019-03-08T12:36:49.405Z,0.97
2019-03-08T12:39:32.866Z,0.93
2019-03-08T12:42:22.572Z,1.20
2019-03-08T12:45:12.011Z,1.00
2019-03-08T12:48:01.806Z,1.07
2019-03-08T12:50:51.267Z,1.40
2019-03-08T12:53:41.022Z,1.00
2019-03-08T12:56:25.954Z,1.00
2019-03-08T12:59:15.428Z,1.63
2019-03-08T13:02:04.763Z,1.00
2019-03-08T13:04:54.234Z,2.20
2019-03-08T13:07:38.018Z,1.23
2019-03-08T13:10:11.056Z,0.70
2019-03-08T13:12:41.580Z,2.63
2019-03-08T13:15:14.224Z,1.20
2019-03-08T13:17:45.051Z,1.90
2019-03-08T13:20:17.748Z,1.30
2019-03-08T13:22:48.449Z,1.20
2019-03-08T13:25:19.448Z,0.90
2019-03-08T13:27:50.104Z,1.00
2019-03-08T13:30:22.499Z,1.20
2019-03-08T13:32:53.279Z,1.50
2019-03-08T13:35:23.863Z,1.47
2019-03-08T13:37:54.579Z,1.10
2019-03-08T13:40:25.486Z,1.20
2019-03-08T13:42:56.178Z,1.20
2019-03-08T13:45:26.983Z,1.20
2019-03-08T13:47:57.613Z,1.10
2019-03-08T13:50:28.317Z,1.20
2019-03-08T13:52:58.865Z,1.10
2019-03-08T13:55:29.364Z,0.93
2019-03-08T13:57:59.943Z,0.90
2019-03-08T14:00:30.688Z,0.90
2019-03-08T14:03:01.403Z,0.90
2019-03-08T14:05:32.084Z,0.80
2019-03-08T14:08:02.682Z,1.10
2019-03-08T14:10:33.120Z,0.93
2019-03-08T14:13:03.754Z,1.07
2019-03-08T14:15:34.238Z,0.90
2019-03-08T14:18:04.901Z,1.00
2019-03-08T14:20:35.652Z,0.97
2019-03-08T14:23:06.383Z,1.03
2019-03-08T14:25:36.984Z,1.50
2019-03-08T14:28:07.782Z,1.30
2019-03-08T14:30:45.283Z,1.20
2019-03-08T14:33:15.951Z,1.40
2019-03-08T14:35:46.553Z,0.90
2019-03-08T14:38:17.033Z,1.10
2019-03-08T14:41:06.732Z,1.00
2019-03-08T14:43:48.974Z,0.70
2019-03-08T14:46:24.708Z,1.33
2019-03-08T14:48:55.782Z,1.40
2019-03-08T14:51:26.294Z,1.30
2019-03-08T14:53:57.000Z,1.17
2019-03-08T14:56:31.721Z,1.00
2019-03-08T14:59:00.223Z,1.03
2019-03-08T15:01:30.903Z,1.20
2019-03-08T15:04:01.582Z,1.20
2019-03-08T15:06:51.317Z,1.00
2019-03-08T15:09:22.128Z,1.50
2019-03-08T15:11:55.955Z,1.30
2019-03-08T15:14:25.439Z,1.20
2019-03-08T15:16:55.880Z,3.83
2019-03-08T15:19:26.748Z,1.70
2019-03-08T15:21:57.286Z,1.90
2019-03-08T15:24:27.793Z,1.00
2019-03-08T15:26:58.343Z,1.33
2019-03-08T15:29:28.824Z,1.43
2019-03-08T15:31:59.714Z,1.30
2019-03-08T15:34:30.313Z,1.10
2019-03-08T15:37:00.950Z,1.17
2019-03-08T15:42:11.136Z,3.27
2019-03-08T15:44:41.798Z,1.60
2019-03-08T15:47:23.029Z,1.27
2019-03-08T15:49:44.672Z,1.80
2019-03-08T15:52:15.379Z,2.87
2019-03-08T15:54:45.964Z,1.50
2019-03-08T15:57:16.593Z,1.50
2019-03-08T15:59:47.102Z,1.30
2019-03-08T16:02:17.868Z,0.80
2019-03-08T16:04:50.131Z,1.60
2019-03-08T16:07:22.976Z,1.90
2019-03-08T16:09:53.539Z,2.27
2019-03-08T16:12:24.199Z,1.73
2019-03-08T16:14:55.125Z,1.60
2019-03-08T16:17:25.723Z,1.73
2019-03-08T16:19:58.803Z,1.20
2019-03-08T16:22:30.018Z,1.47
2019-03-08T16:25:00.945Z,2.00
2019-03-08T16:27:32.062Z,1.80
2019-03-08T16:30:09.630Z,1.53
2019-03-08T16:32:54.065Z,1.27
2019-03-08T16:35:25.531Z,1.80
2019-03-08T16:38:14.756Z,1.37
2019-03-08T16:41:02.244Z,4.80
2019-03-08T16:43:52.280Z,6.77
2019-03-08T16:46:34.350Z,2.57
2019-03-08T16:49:14.768Z,5.93
2019-03-08T16:52:04.578Z,8.07
2019-03-08T16:54:53.639Z,5.20
2019-03-08T16:57:42.086Z,5.60
2019-03-08T17:00:31.488Z,4.93
2019-03-08T17:03:15.855Z,2.40
2019-03-08T17:06:01.646Z,2.10
2019-03-08T17:08:51.091Z,1.90
2019-03-08T17:11:31.273Z,1.80
2019-03-08T17:14:13.676Z,2.83
2019-03-08T17:17:02.998Z,3.10
2019-03-08T17:19:49.447Z,3.07
2019-03-08T17:22:31.464Z,2.40
2019-03-08T17:25:11.645Z,2.20
2019-03-08T17:28:02.200Z,1.43
2019-03-08T17:30:51.638Z,1.60
2019-03-08T17:33:28.917Z,1.70
2019-03-08T17:36:09.298Z,1.97
2019-03-08T17:38:58.692Z,1.97
2019-03-08T17:41:55.662Z,2.63
2019-03-08T17:44:51.626Z,2.30
2019-03-08T17:47:44.648Z,2.53
2019-03-08T17:50:35.167Z,3.07
2019-03-08T17:53:24.593Z,3.20
2019-03-08T17:56:10.706Z,3.00
2019-03-08T17:59:00.571Z,3.43
2019-03-08T18:01:44.879Z,3.40
2019-03-08T18:04:36.354Z,2.90
2019-03-08T18:07:16.378Z,3.33
2019-03-08T18:10:05.533Z,3.37
2019-03-08T18:12:55.121Z,3.77
2019-03-08T18:15:31.893Z,3.10
2019-03-08T18:18:25.356Z,4.07
2019-03-08T18:21:08.258Z,4.10
2019-03-08T18:24:00.908Z,3.93
2019-03-08T18:26:53.897Z,5.40
2019-03-08T18:29:49.648Z,7.13
2019-03-08T18:32:39.108Z,5.50
2019-03-08T18:35:28.715Z,5.97
2019-03-08T18:38:21.496Z,4.07
2019-03-08T18:41:07.572Z,5.77
2019-03-08T18:43:59.393Z,6.63
2019-03-08T18:46:51.576Z,5.03
2019-03-08T18:49:39.513Z,6.30
2019-03-08T18:52:31.773Z,5.70
2019-03-08T18:55:13.400Z,5.63
2019-03-08T18:58:04.099Z,5.03
2019-03-08T19:01:07.413Z,3.60
2019-03-08T19:03:53.778Z,3.77
2019-03-08T19:06:34.117Z,3.60
2019-03-08T19:09:23.146Z,3.43
2019-03-08T19:12:08.723Z,3.40
2019-03-08T19:14:51.668Z,3.87
2019-03-08T19:17:38.441Z,3.73
2019-03-08T19:20:28.609Z,3.90
2019-03-08T19:23:08.649Z,3.87
2019-03-08T19:25:46.550Z,4.20
2019-03-08T19:28:36.048Z,4.60
2019-03-08T19:31:14.249Z,4.70
2019-03-08T19:33:57.033Z,4.60
2019-03-08T19:36:50.803Z,4.90
2019-03-08T19:39:45.658Z,5.63
2019-03-08T19:42:23.588Z,5.10
2019-03-08T19:45:14.788Z,5.43
2019-03-08T19:47:58.842Z,4.57
2019-03-08T19:50:49.809Z,5.23
2019-03-08T19:53:53.111Z,4.90
2019-03-08T19:56:47.599Z,5.90
2019-03-08T19:59:40.063Z,4.77
2019-03-08T20:02:18.001Z,5.30
2019-03-08T20:05:03.989Z,5.50
2019-03-08T20:07:53.516Z,4.70
2019-03-08T20:10:45.823Z,5.60
2019-03-08T20:13:36.461Z,5.87
2019-03-08T20:16:26.463Z,5.73
2019-03-08T20:19:09.900Z,6.10
2019-03-08T20:21:50.683Z,5.73
2019-03-08T20:24:31.088Z,6.30
2019-03-08T20:27:26.388Z,7.07
2019-03-08T20:30:16.154Z,6.20
2019-03-08T20:33:07.338Z,5.90
2019-03-08T20:36:01.091Z,6.37
2019-03-08T20:38:50.705Z,5.23
2019-03-08T20:41:40.142Z,5.70
2019-03-08T20:44:24.313Z,7.00
2019-03-08T20:46:59.953Z,9.30
2019-03-08T20:49:31.642Z,9.63
2019-03-08T20:52:12.585Z,10.13
2019-03-08T20:54:43.263Z,8.70
2019-03-08T20:57:14.278Z,9.20
2019-03-08T20:59:47.723Z,9.90
2019-03-08T21:02:18.342Z,11.33
2019-03-08T21:04:50.280Z,10.27
2019-03-08T21:07:26.271Z,9.43
2019-03-08T21:10:00.303Z,10.60
2019-03-08T21:12:38.284Z,11.33
2019-03-08T21:15:11.623Z,10.23
2019-03-08T21:18:04.932Z,9.90
2019-03-08T21:20:39.158Z,9.10
2019-03-08T21:23:17.931Z,8.20
2019-03-08T21:25:57.009Z,8.60
2019-03-08T21:28:27.793Z,8.00
2019-03-08T21:31:01.688Z,8.07
2019-03-08T21:33:35.367Z,7.90
2019-03-08T21:36:06.134Z,7.20
2019-03-08T21:38:37.856Z,7.43
2019-03-08T21:41:11.298Z,6.57
2019-03-08T21:43:41.983Z,7.87
2019-03-08T21:46:12.558Z,8.33
2019-03-08T21:48:43.094Z,9.57
2019-03-08T21:51:15.046Z,9.70
2019-03-08T21:53:45.417Z,11.13
2019-03-08T21:56:16.107Z,10.40
2019-03-08T21:58:46.721Z,11.27
2019-03-08T22:01:17.107Z,10.43
2019-03-08T22:03:53.568Z,9.77
2019-03-08T22:06:24.182Z,9.93
2019-03-08T22:09:03.589Z,10.40
2019-03-08T22:11:37.248Z,11.93
2019-03-08T22:14:08.422Z,12.00
2019-03-08T22:16:39.040Z,11.77
2019-03-08T22:19:10.010Z,12.63
2019-03-08T22:21:40.323Z,12.47
2019-03-08T22:24:13.641Z,12.40
2019-03-08T22:26:43.698Z,12.23
2019-03-08T22:29:14.186Z,11.97
2019-03-08T22:31:44.747Z,12.23
2019-03-08T22:34:15.309Z,13.10
2019-03-08T22:36:45.889Z,15.10
2019-03-08T22:39:16.741Z,16.43
2019-03-08T22:41:47.247Z,16.13
2019-03-08T22:44:19.363Z,15.87
2019-03-08T22:46:49.833Z,12.93
2019-03-08T22:49:20.214Z,12.77
2019-03-08T22:51:50.723Z,12.80
2019-03-08T22:54:21.145Z,14.80
2019-03-08T22:56:51.630Z,14.00
2019-03-08T22:59:22.037Z,13.33
2019-03-08T23:01:54.566Z,12.30
2019-03-08T23:04:25.033Z,12.53
2019-03-08T23:06:55.771Z,12.00
2019-03-08T23:09:26.440Z,12.73
2019-03-08T23:11:57.569Z,12.40
2019-03-08T23:14:28.063Z,12.70
2019-03-08T23:16:58.793Z,15.03
2019-03-08T23:19:29.202Z,14.63
2019-03-08T23:22:00.145Z,14.40
2019-03-08T23:24:30.679Z,13.50
2019-03-08T23:27:20.031Z,12.37
2019-03-08T23:29:54.116Z,11.30
2019-03-08T23:32:27.828Z,10.77
2019-03-08T23:34:58.090Z,11.00
2019-03-08T23:37:28.516Z,11.43
2019-03-08T23:39:58.965Z,11.67
2019-03-08T23:42:29.749Z,11.10
2019-03-08T23:45:00.363Z,11.50
2019-03-08T23:47:30.888Z,10.90
2019-03-08T23:50:01.465Z,15.03
2019-03-08T23:52:31.974Z,18.50
2019-03-08T23:55:02.649Z,16.20
2019-03-08T23:57:32.993Z,15.80
